Jacksonville, IL

9:58 AM CST on December 27, 2014 (GMT -0600)
Capital | Change Station
CLOSE
Current Station
Airport
Location: Springfield,
Elevation: 594 ft
Nearby Weather Stations

Elev 594 ft 39.85 °N, 89.68 °W | Updated 6 minutes ago

Overcast
Overcast
45 °F
Feels Like 38 °F
N
14
Wind Variable Wind from WNW
Gusts 23 mph

Today
High -- | Low -- °F
--% Chance of Precip.
Yesterday
High -- | Low -- °F
Precip. -- in
7:21 AM 4:43 PM
Waxing Crescent, 37% visible
Pressure 30.14 in
Visibility 10.0 miles
Clouds Overcast 1000 ft
Windchill 38 °F
Dew Point 41 °F
Humidity 86%
Rainfall 0.02 in
Snow Depth Not available.
UV 0 out of 12
Pollen .10 out of 12
Air Quality Not available.
Flu Activity Not available.
METAR KSPI 271552Z 29012G20KT 10SM OVC010 07/05 A3013 RMK AO2 RAE25 SLP207 P0001 T00720050

More Conditions Fewer Conditions

Pressure 30.14 in
Visibility 10.0 miles
Clouds Overcast 1000 ft
Windchill 38 °F
Dew Point 41 °F
Humidity 86%
Rainfall 0.02 in
Snow Depth Not available.
UV 0 out of 12
Pollen .10 out of 12
Air Quality Not available.
Flu Activity Not available.
METAR KSPI 271552Z 29012G20KT 10SM OVC010 07/05 A3013 RMK AO2 RAE25 SLP207 P0001 T00720050

More Conditions Fewer Conditions

10-Day Weather Forecast

Almanac

Astronomy

Dec. 27, 2014 Rise Set
Actual Time
Civil Twilight
Nautical Twilight
Astronomical Twilight
Moon
Length of Visible Light
Length of Day
Tomorrow will be .
, % of the Moon is Illuminated

Today's Extremes

State Highs State Lows

Community

WunderPhotos

Upload Photos

1,780,935 photos uploaded!

WunderBlogs® & News

Nearby

Air Quality

  Air Quality AQ Index Pollutant
Not available.

Snow Depth

Station Depth Elevation

Earthquake Activity

City Distance Mag. Time & Date
Minimum magnitude displayed is 2.5.

Coastal Water Temperatures

Place Temperature

Nearby Weather Stations